Linda, Antarctica

1:36 AM GMT on July 31, 2014 (GMT +0000)
Williams Field (NZCM) Elev 79 ft | 77.85 °S, 166.67 °E | Change Station

Current weather conditions updated 1 hour ago

Light Snow
Light Snow Ice Crystals
-31 °F
Feels Like -57 °F
N
13
Wind Variable Wind from East

Today is forecast to be Much Warmer than yesterday.

Today
High -- | Low -- °F
--% Chance of Precip.
Yesterday
High -- | Low -- °F
Precip. -- in
0:00 AM 0:00 AM
Waxing Crescent, 15% visible
Pressure 29.84 in
Visibility 6.2 miles
Clouds Overcast 2500 ft
Windchill -57 °F
Dew Point -42 °F
Humidity 56%
Rainfall 0.00 in
Snow Depth Not available.
UV 0 out of 12
Pollen Not available.
Air Quality Not available.
Flu Activity Not available.
METAR NZCM 302355Z 10011KT 9999 -SN IC OVC025 M35/M41 A2981 RMK SNB2235 SLP104

More Conditions Fewer Conditions

Pressure 29.84 in
Visibility 6.2 miles
Clouds Overcast 2500 ft
Windchill -57 °F
Dew Point -42 °F
Humidity 56%
Rainfall 0.00 in
Snow Depth Not available.
UV 0 out of 12
Pollen Not available.
Air Quality Not available.
Flu Activity Not available.
METAR NZCM 302355Z 10011KT 9999 -SN IC OVC025 M35/M41 A2981 RMK SNB2235 SLP104

More Conditions Fewer Conditions

10-Day Weather Forecast

Almanac

Astronomy

Jul. 31, 2014 Rise Set
Actual Time Sun does not set Sun does not set
Civil Twilight 12:20 AM GMT 1:25 AM GMT
Nautical Twilight 9:00 PM GMT 4:46 AM GMT
Astronomical Twilight 6:52 PM GMT 6:55 AM GMT
Moon 9:27 PM GMT 10:08 AM GMT
Length of Visible Light 1h 04m
Length of Day
0h 00m
Tomorrow will be 0m 0s shorter.
Waxing Crescent, 15% of the Moon is Illuminated
Jul 30
Waxing Crescent
Aug 3
First Quarter
Aug 10
Full
Aug 17
Last Quarter
Aug 25
New

Yesterday's Extremes

Country Highs Country Lows

Community

WunderPhotos

Upload Photos

1,739,264 photos uploaded!

Nearby

Snow Depth

Not available.

Earthquake Activity

City Distance Mag. Time & Date
No recent earthquake activity has been reported nearby.
Minimum magnitude displayed is 2.5.

Coastal Water Temperatures

Place Temperature
No Stations Reporting

Nearby Weather Stations

There are no personal weather stations in this area.